Terminal Aerodrome Forecast
Issued by NWS Charleston, WV

Current Version | Previous Version | Graphics & Text | Print | Product List | Glossary On
Versions: 1 2 3 4 5 6 7 8 9 10 11 12 13 14 15 16 17 18 19 20 21
759
FTUS41 KRLX 251733
TAFPKB
TAF
KPKB 251733Z 2518/2618 24006KT P6SM BKN025
     FM252000 24006KT P6SM SCT025
     FM260800 00000KT 5SM BR SCT045
     FM261000 00000KT 1 1/2SM BR SCT250
     FM261200 VRB04KT P6SM FEW045=

USA.gov is the U.S. government's official web portal to all federal, state and local government web resources and services.